Pacific Dawn — 3ECJ9 — position and weather

sailwx.info

Track history (hours):
 
Tides and Currents Weather Stations Pressure Air Temp Water Temp Dewpoint Dewpoint Depression Visibility Wind Speed Wind Dir Waves Ship Positions

Pacific Dawn

Last reported at 2018-Jan-27 23:20 UTC. Time now 2018-Feb-23 20:42 UTC.
Position N 25°11' E 122°52'.
Warning: this ship's position is 26 days out of date.

Length 239 m; draft 12.8 m.

Type: Tanker. MMSI: 371361000.

Date/timePositionNaut miles runAvg speedWind from/ knotsBaromVisibWave heightAir tempDewpointWater temp
2018-Jan-27 23:20N 25°11' E 122°52'514.1
2018-Jan-27 22:59N 25°06' E 122°51'714.0
2018-Jan-27 22:30N 24°60' E 122°49'713.6
2018-Jan-27 21:59N 24°53' E 122°47'613.1
2018-Jan-27 21:30N 24°46' E 122°45'613.0
2018-Jan-27 21:00N 24°40' E 122°44'612.8
2018-Jan-27 20:30N 24°34' E 122°42'612.5
2018-Jan-27 20:00N 24°28' E 122°40'612.5
2018-Jan-27 19:30N 24°22' E 122°38'612.2
2018-Jan-27 19:00N 24°16' E 122°39'612.0
2018-Jan-27 18:30N 24°10' E 122°38'611.7
2018-Jan-27 18:00N 24°04' E 122°37'611.9
2018-Jan-27 17:30N 23°59' E 122°33'612.2
2018-Jan-27 17:00N 23°53' E 122°31'612.2
2018-Jan-27 16:30N 23°47' E 122°30'612.1
2018-Jan-27 16:00N 23°41' E 122°28'7711.4
2018-Jan-27 09:15N 22°27' E 122°07'  
2018-Jan-18 20:30N 01°15' E 104°06'510.6
2018-Jan-18 20:00N 01°15' E 104°01'510.3
2018-Jan-18 19:30N 01°13' E 103°56'5 9.3
2018-Jan-18 19:00N 01°11' E 103°52'4 8.6
2018-Jan-18 18:30N 01°09' E 103°48'4 8.8
2018-Jan-18 18:01N 01°06' E 103°45'5 9.1
2018-Jan-18 17:30N 01°04' E 103°41'5 9.0
2018-Jan-18 17:01N 01°04' E 103°36'611.8
2018-Jan-18 16:31N 01°07' E 103°32'611.9
2018-Jan-18 16:00N 01°11' E 103°27'611.7
2018-Jan-18 15:30N 01°14' E 103°22'  
Track history (hours):
 
Tides and Currents Weather Stations Pressure Air Temp Water Temp Dewpoint Dewpoint Depression Visibility Wind Speed Wind Dir Waves Ship Positions

Pacific Dawn

Last reported at 2018-Jan-27 23:20 UTC. Time now 2018-Feb-23 20:42 UTC.
Position N 25°11' E 122°52'.
Warning: this ship's position is 26 days out of date.

Length 239 m; draft 12.8 m.

Type: Tanker. MMSI: 371361000.

Date/timePositionNaut miles runAvg speedWind from/ knotsBaromVisibWave heightAir tempDewpointWater temp
2018-Jan-27 23:20N 25°11' E 122°52'514.1
2018-Jan-27 22:59N 25°06' E 122°51'714.0
2018-Jan-27 22:30N 24°60' E 122°49'713.6
2018-Jan-27 21:59N 24°53' E 122°47'613.1
2018-Jan-27 21:30N 24°46' E 122°45'613.0
2018-Jan-27 21:00N 24°40' E 122°44'612.8
2018-Jan-27 20:30N 24°34' E 122°42'612.5
2018-Jan-27 20:00N 24°28' E 122°40'612.5
2018-Jan-27 19:30N 24°22' E 122°38'612.2
2018-Jan-27 19:00N 24°16' E 122°39'612.0
2018-Jan-27 18:30N 24°10' E 122°38'611.7
2018-Jan-27 18:00N 24°04' E 122°37'611.9
2018-Jan-27 17:30N 23°59' E 122°33'612.2
2018-Jan-27 17:00N 23°53' E 122°31'612.2
2018-Jan-27 16:30N 23°47' E 122°30'612.1
2018-Jan-27 16:00N 23°41' E 122°28'7711.4
2018-Jan-27 09:15N 22°27' E 122°07'  
2018-Jan-18 20:30N 01°15' E 104°06'510.6
2018-Jan-18 20:00N 01°15' E 104°01'510.3
2018-Jan-18 19:30N 01°13' E 103°56'5 9.3
2018-Jan-18 19:00N 01°11' E 103°52'4 8.6
2018-Jan-18 18:30N 01°09' E 103°48'4 8.8
2018-Jan-18 18:01N 01°06' E 103°45'5 9.1
2018-Jan-18 17:30N 01°04' E 103°41'5 9.0
2018-Jan-18 17:01N 01°04' E 103°36'611.8
2018-Jan-18 16:31N 01°07' E 103°32'611.9
2018-Jan-18 16:00N 01°11' E 103°27'611.7
2018-Jan-18 15:30N 01°14' E 103°22'  

Dump ship's entire track history